sensor_id;sensor_type;location;lat;lon;timestamp;P1;durP1;ratioP1;P2;durP2;ratioP2
1593;SDS011;790;47.000;16.084;2023-09-19T00:00:56;11.18;;;10.10;;
1593;SDS011;790;47.000;16.084;2023-09-19T00:03:23;12.82;;;9.75;;
1593;SDS011;790;47.000;16.084;2023-09-19T00:05:52;14.25;;;9.77;;
1593;SDS011;790;47.000;16.084;2023-09-19T00:08:20;11.50;;;10.32;;
1593;SDS011;790;47.000;16.084;2023-09-19T00:10:50;16.25;;;10.63;;
1593;SDS011;790;47.000;16.084;2023-09-19T00:13:18;12.70;;;10.45;;
1593;SDS011;790;47.000;16.084;2023-09-19T00:15:46;12.32;;;10.45;;
1593;SDS011;790;47.000;16.084;2023-09-19T00:18:15;11.15;;;9.85;;
1593;SDS011;790;47.000;16.084;2023-09-19T00:20:42;17.10;;;10.70;;
1593;SDS011;790;47.000;16.084;2023-09-19T00:23:14;13.15;;;10.15;;
1593;SDS011;790;47.000;16.084;2023-09-19T00:25:41;12.50;;;10.45;;
1593;SDS011;790;47.000;16.084;2023-09-19T00:28:09;14.77;;;10.15;;
1593;SDS011;790;47.000;16.084;2023-09-19T00:30:36;13.40;;;10.90;;
1593;SDS011;790;47.000;16.084;2023-09-19T00:33:04;17.23;;;10.40;;
1593;SDS011;790;47.000;16.084;2023-09-19T00:35:33;18.13;;;10.50;;
1593;SDS011;790;47.000;16.084;2023-09-19T00:38:00;13.10;;;10.82;;
1593;SDS011;790;47.000;16.084;2023-09-19T00:40:30;17.33;;;10.98;;
1593;SDS011;790;47.000;16.084;2023-09-19T00:42:58;15.10;;;10.93;;
1593;SDS011;790;47.000;16.084;2023-09-19T00:45:26;14.90;;;10.93;;
1593;SDS011;790;47.000;16.084;2023-09-19T00:47:53;12.18;;;10.75;;
1593;SDS011;790;47.000;16.084;2023-09-19T00:50:23;14.40;;;10.98;;
1593;SDS011;790;47.000;16.084;2023-09-19T00:52:53;19.23;;;11.35;;
1593;SDS011;790;47.000;16.084;2023-09-19T00:55:22;11.88;;;10.68;;
1593;SDS011;790;47.000;16.084;2023-09-19T00:57:52;13.85;;;11.00;;
1593;SDS011;790;47.000;16.084;2023-09-19T01:00:22;14.63;;;10.88;;
1593;SDS011;790;47.000;16.084;2023-09-19T01:02:50;10.48;;;9.30;;
1593;SDS011;790;47.000;16.084;2023-09-19T01:05:17;11.25;;;9.85;;
1593;SDS011;790;47.000;16.084;2023-09-19T01:07:44;12.35;;;9.35;;
1593;SDS011;790;47.000;16.084;2023-09-19T01:10:14;13.80;;;9.85;;
1593;SDS011;790;47.000;16.084;2023-09-19T01:12:48;15.75;;;10.60;;
1593;SDS011;790;47.000;16.084;2023-09-19T01:15:24;12.20;;;9.88;;
1593;SDS011;790;47.000;16.084;2023-09-19T01:18:00;11.30;;;10.10;;
1593;SDS011;790;47.000;16.084;2023-09-19T01:20:39;11.52;;;10.32;;
1593;SDS011;790;47.000;16.084;2023-09-19T01:23:14;15.65;;;10.98;;
1593;SDS011;790;47.000;16.084;2023-09-19T01:29:00;12.23;;;10.30;;
1593;SDS011;790;47.000;16.084;2023-09-19T01:31:40;17.30;;;11.70;;
1593;SDS011;790;47.000;16.084;2023-09-19T01:34:11;14.05;;;10.60;;
1593;SDS011;790;47.000;16.084;2023-09-19T01:36:38;12.45;;;11.15;;
1593;SDS011;790;47.000;16.084;2023-09-19T01:39:05;12.93;;;11.18;;
1593;SDS011;790;47.000;16.084;2023-09-19T01:41:39;12.43;;;10.93;;
1593;SDS011;790;47.000;16.084;2023-09-19T01:44:16;12.07;;;10.43;;
1593;SDS011;790;47.000;16.084;2023-09-19T01:46:49;17.23;;;11.07;;
1593;SDS011;790;47.000;16.084;2023-09-19T01:49:21;14.57;;;11.48;;
1593;SDS011;790;47.000;16.084;2023-09-19T01:51:56;11.07;;;10.00;;
1593;SDS011;790;47.000;16.084;2023-09-19T01:54:30;14.40;;;11.45;;
1593;SDS011;790;47.000;16.084;2023-09-19T01:57:05;11.98;;;10.30;;
1593;SDS011;790;47.000;16.084;2023-09-19T01:59:37;10.60;;;9.70;;
1593;SDS011;790;47.000;16.084;2023-09-19T02:02:12;13.70;;;10.55;;
1593;SDS011;790;47.000;16.084;2023-09-19T02:04:42;13.15;;;10.73;;
1593;SDS011;790;47.000;16.084;2023-09-19T02:07:10;13.10;;;10.27;;
1593;SDS011;790;47.000;16.084;2023-09-19T02:09:37;15.85;;;11.10;;
1593;SDS011;790;47.000;16.084;2023-09-19T02:12:05;15.60;;;11.38;;
1593;SDS011;790;47.000;16.084;2023-09-19T02:14:33;15.27;;;9.82;;
1593;SDS011;790;47.000;16.084;2023-09-19T02:17:01;12.25;;;10.65;;
1593;SDS011;790;47.000;16.084;2023-09-19T02:19:32;17.45;;;12.55;;
1593;SDS011;790;47.000;16.084;2023-09-19T02:21:59;14.48;;;10.80;;
1593;SDS011;790;47.000;16.084;2023-09-19T02:24:28;15.27;;;10.10;;
1593;SDS011;790;47.000;16.084;2023-09-19T02:26:56;16.17;;;11.18;;
1593;SDS011;790;47.000;16.084;2023-09-19T02:29:24;16.90;;;11.88;;
1593;SDS011;790;47.000;16.084;2023-09-19T02:31:52;14.55;;;11.45;;
1593;SDS011;790;47.000;16.084;2023-09-19T02:34:21;17.88;;;12.40;;
1593;SDS011;790;47.000;16.084;2023-09-19T02:36:52;13.18;;;11.82;;
1593;SDS011;790;47.000;16.084;2023-09-19T02:39:21;14.60;;;11.73;;
1593;SDS011;790;47.000;16.084;2023-09-19T02:41:48;13.57;;;12.07;;
1593;SDS011;790;47.000;16.084;2023-09-19T02:44:16;13.35;;;10.85;;
1593;SDS011;790;47.000;16.084;2023-09-19T02:46:45;13.20;;;11.45;;
1593;SDS011;790;47.000;16.084;2023-09-19T02:49:13;13.30;;;10.55;;
1593;SDS011;790;47.000;16.084;2023-09-19T02:51:40;14.25;;;11.93;;
1593;SDS011;790;47.000;16.084;2023-09-19T02:54:09;12.65;;;11.20;;
1593;SDS011;790;47.000;16.084;2023-09-19T02:56:37;14.57;;;12.00;;
1593;SDS011;790;47.000;16.084;2023-09-19T02:59:04;14.68;;;11.48;;
1593;SDS011;790;47.000;16.084;2023-09-19T03:01:32;13.57;;;12.13;;
1593;SDS011;790;47.000;16.084;2023-09-19T03:04:00;13.52;;;11.55;;
1593;SDS011;790;47.000;16.084;2023-09-19T03:06:27;15.43;;;11.35;;
1593;SDS011;790;47.000;16.084;2023-09-19T03:08:56;15.32;;;12.35;;
1593;SDS011;790;47.000;16.084;2023-09-19T03:11:26;13.52;;;12.15;;
1593;SDS011;790;47.000;16.084;2023-09-19T03:13:54;13.65;;;10.90;;
1593;SDS011;790;47.000;16.084;2023-09-19T03:16:22;13.18;;;11.55;;
1593;SDS011;790;47.000;16.084;2023-09-19T03:18:50;14.85;;;12.70;;
1593;SDS011;790;47.000;16.084;2023-09-19T03:21:17;17.50;;;12.35;;
1593;SDS011;790;47.000;16.084;2023-09-19T03:23:44;18.88;;;12.77;;
1593;SDS011;790;47.000;16.084;2023-09-19T03:26:12;14.88;;;11.80;;
1593;SDS011;790;47.000;16.084;2023-09-19T03:28:43;13.85;;;11.88;;
1593;SDS011;790;47.000;16.084;2023-09-19T03:31:11;14.48;;;12.13;;
1593;SDS011;790;47.000;16.084;2023-09-19T03:33:38;13.23;;;11.35;;
1593;SDS011;790;47.000;16.084;2023-09-19T03:36:05;12.50;;;11.20;;
1593;SDS011;790;47.000;16.084;2023-09-19T03:38:33;13.70;;;11.23;;
1593;SDS011;790;47.000;16.084;2023-09-19T03:41:00;12.90;;;11.60;;
1593;SDS011;790;47.000;16.084;2023-09-19T03:43:28;13.13;;;10.82;;
1593;SDS011;790;47.000;16.084;2023-09-19T03:45:56;11.85;;;10.65;;
1593;SDS011;790;47.000;16.084;2023-09-19T03:48:28;11.07;;;9.98;;
1593;SDS011;790;47.000;16.084;2023-09-19T03:50:56;11.93;;;9.98;;
1593;SDS011;790;47.000;16.084;2023-09-19T03:53:23;10.73;;;9.73;;
1593;SDS011;790;47.000;16.084;2023-09-19T03:55:50;11.02;;;9.85;;
1593;SDS011;790;47.000;16.084;2023-09-19T03:58:17;12.07;;;9.60;;
1593;SDS011;790;47.000;16.084;2023-09-19T04:00:44;13.05;;;9.73;;
1593;SDS011;790;47.000;16.084;2023-09-19T04:03:12;9.52;;;8.63;;
1593;SDS011;790;47.000;16.084;2023-09-19T04:05:44;10.45;;;8.25;;
1593;SDS011;790;47.000;16.084;2023-09-19T04:08:12;11.10;;;8.05;;
1593;SDS011;790;47.000;16.084;2023-09-19T04:10:41;8.85;;;7.95;;
1593;SDS011;790;47.000;16.084;2023-09-19T04:13:10;8.10;;;7.30;;
1593;SDS011;790;47.000;16.084;2023-09-19T04:15:37;9.82;;;8.68;;
1593;SDS011;790;47.000;16.084;2023-09-19T04:18:05;10.10;;;8.23;;
1593;SDS011;790;47.000;16.084;2023-09-19T04:20:34;11.27;;;7.88;;
1593;SDS011;790;47.000;16.084;2023-09-19T04:23:02;11.75;;;9.18;;
1593;SDS011;790;47.000;16.084;2023-09-19T04:25:29;9.00;;;8.10;;
1593;SDS011;790;47.000;16.084;2023-09-19T04:27:57;10.15;;;8.63;;
1593;SDS011;790;47.000;16.084;2023-09-19T04:30:24;9.32;;;7.68;;
1593;SDS011;790;47.000;16.084;2023-09-19T04:32:52;9.60;;;7.43;;
1593;SDS011;790;47.000;16.084;2023-09-19T04:35:19;9.05;;;8.15;;
1593;SDS011;790;47.000;16.084;2023-09-19T04:37:48;10.38;;;8.23;;
1593;SDS011;790;47.000;16.084;2023-09-19T04:40:16;8.95;;;8.15;;
1593;SDS011;790;47.000;16.084;2023-09-19T04:42:44;7.75;;;7.15;;
1593;SDS011;790;47.000;16.084;2023-09-19T04:45:11;8.18;;;7.38;;
1593;SDS011;790;47.000;16.084;2023-09-19T04:47:38;8.77;;;7.88;;
1593;SDS011;790;47.000;16.084;2023-09-19T04:50:07;10.20;;;8.10;;
1593;SDS011;790;47.000;16.084;2023-09-19T04:52:38;9.57;;;8.68;;
1593;SDS011;790;47.000;16.084;2023-09-19T04:55:09;9.52;;;8.35;;
1593;SDS011;790;47.000;16.084;2023-09-19T04:57:42;9.90;;;8.70;;
1593;SDS011;790;47.000;16.084;2023-09-19T05:00:11;8.63;;;7.90;;
1593;SDS011;790;47.000;16.084;2023-09-19T05:02:40;10.00;;;8.98;;
1593;SDS011;790;47.000;16.084;2023-09-19T05:05:08;14.55;;;12.23;;
1593;SDS011;790;47.000;16.084;2023-09-19T05:07:36;13.05;;;11.65;;
1593;SDS011;790;47.000;16.084;2023-09-19T05:10:04;12.80;;;10.57;;
1593;SDS011;790;47.000;16.084;2023-09-19T05:12:33;10.20;;;9.02;;
1593;SDS011;790;47.000;16.084;2023-09-19T05:15:01;11.05;;;9.60;;
1593;SDS011;790;47.000;16.084;2023-09-19T05:17:29;10.18;;;8.80;;
1593;SDS011;790;47.000;16.084;2023-09-19T05:19:56;10.38;;;7.63;;
1593;SDS011;790;47.000;16.084;2023-09-19T05:22:26;9.48;;;8.25;;
1593;SDS011;790;47.000;16.084;2023-09-19T05:24:54;7.82;;;6.68;;
1593;SDS011;790;47.000;16.084;2023-09-19T05:27:21;7.13;;;6.07;;
1593;SDS011;790;47.000;16.084;2023-09-19T05:29:49;6.20;;;5.60;;
1593;SDS011;790;47.000;16.084;2023-09-19T05:32:18;5.75;;;5.15;;
1593;SDS011;790;47.000;16.084;2023-09-19T05:34:45;6.07;;;5.50;;
1593;SDS011;790;47.000;16.084;2023-09-19T05:37:13;6.50;;;5.68;;
1593;SDS011;790;47.000;16.084;2023-09-19T05:39:41;9.15;;;6.45;;
1593;SDS011;790;47.000;16.084;2023-09-19T05:42:08;8.23;;;7.40;;
1593;SDS011;790;47.000;16.084;2023-09-19T05:44:36;15.35;;;12.68;;
1593;SDS011;790;47.000;16.084;2023-09-19T05:47:04;8.48;;;7.45;;
1593;SDS011;790;47.000;16.084;2023-09-19T05:49:34;7.15;;;6.55;;
1593;SDS011;790;47.000;16.084;2023-09-19T05:52:03;8.40;;;6.13;;
1593;SDS011;790;47.000;16.084;2023-09-19T05:54:31;6.07;;;5.45;;
1593;SDS011;790;47.000;16.084;2023-09-19T05:57:00;6.80;;;5.43;;
1593;SDS011;790;47.000;16.084;2023-09-19T05:59:27;8.10;;;5.82;;
1593;SDS011;790;47.000;16.084;2023-09-19T06:01:55;6.47;;;5.68;;
1593;SDS011;790;47.000;16.084;2023-09-19T06:04:23;9.02;;;5.50;;
1593;SDS011;790;47.000;16.084;2023-09-19T06:06:50;6.57;;;6.03;;
1593;SDS011;790;47.000;16.084;2023-09-19T06:09:18;5.63;;;5.05;;
1593;SDS011;790;47.000;16.084;2023-09-19T06:11:45;5.15;;;4.85;;
1593;SDS011;790;47.000;16.084;2023-09-19T06:14:12;6.03;;;4.70;;
1593;SDS011;790;47.000;16.084;2023-09-19T06:16:39;5.65;;;5.15;;
1593;SDS011;790;47.000;16.084;2023-09-19T06:19:08;7.68;;;4.60;;
1593;SDS011;790;47.000;16.084;2023-09-19T06:21:36;6.25;;;4.85;;
1593;SDS011;790;47.000;16.084;2023-09-19T06:24:04;8.20;;;5.07;;
1593;SDS011;790;47.000;16.084;2023-09-19T06:26:31;9.32;;;5.68;;
1593;SDS011;790;47.000;16.084;2023-09-19T06:28:59;6.45;;;4.97;;
1593;SDS011;790;47.000;16.084;2023-09-19T06:31:26;5.85;;;5.18;;
1593;SDS011;790;47.000;16.084;2023-09-19T06:33:53;5.28;;;4.78;;
1593;SDS011;790;47.000;16.084;2023-09-19T06:36:20;5.40;;;4.90;;
1593;SDS011;790;47.000;16.084;2023-09-19T06:38:49;6.00;;;5.35;;
1593;SDS011;790;47.000;16.084;2023-09-19T06:41:17;6.65;;;4.85;;
1593;SDS011;790;47.000;16.084;2023-09-19T06:43:44;5.90;;;4.72;;
1593;SDS011;790;47.000;16.084;2023-09-19T06:46:11;7.40;;;4.47;;
1593;SDS011;790;47.000;16.084;2023-09-19T06:48:39;17.08;;;5.50;;
1593;SDS011;790;47.000;16.084;2023-09-19T06:51:06;5.57;;;5.05;;
1593;SDS011;790;47.000;16.084;2023-09-19T06:53:35;5.72;;;4.53;;
1593;SDS011;790;47.000;16.084;2023-09-19T06:56:03;5.85;;;5.22;;
1593;SDS011;790;47.000;16.084;2023-09-19T06:58:31;5.05;;;4.25;;
1593;SDS011;790;47.000;16.084;2023-09-19T07:00:58;6.10;;;5.28;;
1593;SDS011;790;47.000;16.084;2023-09-19T07:03:26;6.05;;;5.15;;
1593;SDS011;790;47.000;16.084;2023-09-19T07:05:53;7.13;;;5.47;;
1593;SDS011;790;47.000;16.084;2023-09-19T07:08:21;5.80;;;5.30;;
1593;SDS011;790;47.000;16.084;2023-09-19T07:10:48;6.85;;;4.80;;
1593;SDS011;790;47.000;16.084;2023-09-19T07:13:20;6.10;;;4.38;;
1593;SDS011;790;47.000;16.084;2023-09-19T07:15:47;15.70;;;5.10;;
1593;SDS011;790;47.000;16.084;2023-09-19T07:18:15;6.97;;;4.68;;
1593;SDS011;790;47.000;16.084;2023-09-19T07:20:43;5.13;;;4.45;;
1593;SDS011;790;47.000;16.084;2023-09-19T07:23:14;8.80;;;5.60;;
1593;SDS011;790;47.000;16.084;2023-09-19T07:25:43;5.22;;;4.72;;
1593;SDS011;790;47.000;16.084;2023-09-19T07:28:11;8.00;;;4.63;;
1593;SDS011;790;47.000;16.084;2023-09-19T07:30:40;4.53;;;4.00;;
1593;SDS011;790;47.000;16.084;2023-09-19T07:33:07;6.20;;;4.70;;
1593;SDS011;790;47.000;16.084;2023-09-19T07:35:36;5.15;;;4.65;;
1593;SDS011;790;47.000;16.084;2023-09-19T07:38:06;6.03;;;4.68;;
1593;SDS011;790;47.000;16.084;2023-09-19T07:40:33;7.03;;;4.22;;
1593;SDS011;790;47.000;16.084;2023-09-19T07:43:00;5.90;;;4.50;;
1593;SDS011;790;47.000;16.084;2023-09-19T07:45:29;4.25;;;3.88;;
1593;SDS011;790;47.000;16.084;2023-09-19T07:47:58;4.75;;;4.28;;
1593;SDS011;790;47.000;16.084;2023-09-19T07:50:26;6.53;;;4.03;;
1593;SDS011;790;47.000;16.084;2023-09-19T07:52:54;3.90;;;3.47;;
1593;SDS011;790;47.000;16.084;2023-09-19T07:55:22;5.05;;;4.57;;
1593;SDS011;790;47.000;16.084;2023-09-19T07:57:50;4.55;;;4.15;;
1593;SDS011;790;47.000;16.084;2023-09-19T08:00:18;4.28;;;3.97;;
1593;SDS011;790;47.000;16.084;2023-09-19T08:02:45;4.57;;;4.18;;
1593;SDS011;790;47.000;16.084;2023-09-19T08:05:14;5.35;;;3.95;;
1593;SDS011;790;47.000;16.084;2023-09-19T08:07:43;4.82;;;3.90;;
1593;SDS011;790;47.000;16.084;2023-09-19T08:10:14;5.68;;;3.97;;
1593;SDS011;790;47.000;16.084;2023-09-19T08:12:45;4.28;;;3.88;;
1593;SDS011;790;47.000;16.084;2023-09-19T08:15:13;4.07;;;3.70;;
1593;SDS011;790;47.000;16.084;2023-09-19T08:17:40;4.20;;;3.70;;
1593;SDS011;790;47.000;16.084;2023-09-19T08:20:08;6.07;;;3.85;;
1593;SDS011;790;47.000;16.084;2023-09-19T08:22:44;4.68;;;3.97;;
1593;SDS011;790;47.000;16.084;2023-09-19T08:25:14;4.78;;;3.50;;
1593;SDS011;790;47.000;16.084;2023-09-19T08:27:43;3.58;;;3.38;;
1593;SDS011;790;47.000;16.084;2023-09-19T08:30:13;4.60;;;4.20;;
1593;SDS011;790;47.000;16.084;2023-09-19T08:32:41;5.38;;;3.95;;
1593;SDS011;790;47.000;16.084;2023-09-19T08:35:08;4.55;;;4.15;;
1593;SDS011;790;47.000;16.084;2023-09-19T08:37:36;6.43;;;3.97;;
1593;SDS011;790;47.000;16.084;2023-09-19T08:40:05;5.85;;;4.43;;
1593;SDS011;790;47.000;16.084;2023-09-19T08:42:46;4.55;;;3.97;;
1593;SDS011;790;47.000;16.084;2023-09-19T08:45:15;5.00;;;3.70;;
1593;SDS011;790;47.000;16.084;2023-09-19T08:47:45;5.03;;;3.92;;
1593;SDS011;790;47.000;16.084;2023-09-19T08:50:17;4.45;;;3.85;;
1593;SDS011;790;47.000;16.084;2023-09-19T08:52:49;4.10;;;3.85;;
1593;SDS011;790;47.000;16.084;2023-09-19T08:55:22;5.47;;;3.25;;
1593;SDS011;790;47.000;16.084;2023-09-19T08:57:55;4.55;;;3.30;;
1593;SDS011;790;47.000;16.084;2023-09-19T09:00:27;5.75;;;3.40;;
1593;SDS011;790;47.000;16.084;2023-09-19T09:02:55;4.30;;;3.38;;
1593;SDS011;790;47.000;16.084;2023-09-19T09:05:24;5.28;;;3.33;;
1593;SDS011;790;47.000;16.084;2023-09-19T09:07:52;3.55;;;2.92;;
1593;SDS011;790;47.000;16.084;2023-09-19T09:10:21;5.22;;;3.00;;
1593;SDS011;790;47.000;16.084;2023-09-19T09:12:49;3.22;;;2.97;;
1593;SDS011;790;47.000;16.084;2023-09-19T09:15:18;3.28;;;2.70;;
1593;SDS011;790;47.000;16.084;2023-09-19T09:17:47;2.65;;;2.45;;
1593;SDS011;790;47.000;16.084;2023-09-19T09:20:15;3.35;;;2.80;;
1593;SDS011;790;47.000;16.084;2023-09-19T09:22:50;3.03;;;2.70;;
1593;SDS011;790;47.000;16.084;2023-09-19T09:25:18;2.83;;;2.63;;
1593;SDS011;790;47.000;16.084;2023-09-19T09:27:59;4.03;;;2.22;;
1593;SDS011;790;47.000;16.084;2023-09-19T09:30:33;4.35;;;2.42;;
1593;SDS011;790;47.000;16.084;2023-09-19T09:33:08;3.88;;;2.60;;
1593;SDS011;790;47.000;16.084;2023-09-19T09:35:36;2.72;;;2.40;;
1593;SDS011;790;47.000;16.084;2023-09-19T09:38:13;3.05;;;2.90;;
1593;SDS011;790;47.000;16.084;2023-09-19T09:40:45;2.88;;;2.67;;
1593;SDS011;790;47.000;16.084;2023-09-19T09:43:26;2.65;;;2.42;;
1593;SDS011;790;47.000;16.084;2023-09-19T09:46:13;2.55;;;2.30;;
1593;SDS011;790;47.000;16.084;2023-09-19T09:49:07;2.67;;;2.45;;
1593;SDS011;790;47.000;16.084;2023-09-19T09:51:44;3.05;;;2.85;;
1593;SDS011;790;47.000;16.084;2023-09-19T09:54:14;3.67;;;2.50;;
1593;SDS011;790;47.000;16.084;2023-09-19T09:56:52;2.65;;;2.55;;
1593;SDS011;790;47.000;16.084;2023-09-19T10:02:19;4.65;;;2.85;;
1593;SDS011;790;47.000;16.084;2023-09-19T10:04:55;2.20;;;2.00;;
1593;SDS011;790;47.000;16.084;2023-09-19T10:07:34;3.13;;;1.92;;
1593;SDS011;790;47.000;16.084;2023-09-19T10:10:06;5.05;;;2.22;;
1593;SDS011;790;47.000;16.084;2023-09-19T10:12:44;2.30;;;2.08;;
1593;SDS011;790;47.000;16.084;2023-09-19T10:15:14;3.10;;;2.72;;
1593;SDS011;790;47.000;16.084;2023-09-19T10:17:45;3.55;;;2.30;;
1593;SDS011;790;47.000;16.084;2023-09-19T10:20:13;2.10;;;2.00;;
1593;SDS011;790;47.000;16.084;2023-09-19T10:23:02;2.78;;;2.58;;
1593;SDS011;790;47.000;16.084;2023-09-19T10:25:35;2.22;;;1.98;;
1593;SDS011;790;47.000;16.084;2023-09-19T10:28:05;4.00;;;2.60;;
1593;SDS011;790;47.000;16.084;2023-09-19T10:30:38;3.17;;;2.63;;
1593;SDS011;790;47.000;16.084;2023-09-19T10:33:10;3.65;;;2.60;;
1593;SDS011;790;47.000;16.084;2023-09-19T10:35:39;3.10;;;2.90;;
1593;SDS011;790;47.000;16.084;2023-09-19T10:38:09;4.38;;;2.78;;
1593;SDS011;790;47.000;16.084;2023-09-19T10:40:38;4.78;;;2.40;;
1593;SDS011;790;47.000;16.084;2023-09-19T10:43:11;2.08;;;1.98;;
1593;SDS011;790;47.000;16.084;2023-09-19T10:45:41;4.97;;;2.60;;
1593;SDS011;790;47.000;16.084;2023-09-19T10:48:12;2.50;;;2.30;;
1593;SDS011;790;47.000;16.084;2023-09-19T10:50:43;2.20;;;2.00;;
1593;SDS011;790;47.000;16.084;2023-09-19T10:53:14;1.80;;;1.70;;
1593;SDS011;790;47.000;16.084;2023-09-19T10:55:47;2.92;;;1.95;;
1593;SDS011;790;47.000;16.084;2023-09-19T10:58:24;2.25;;;2.05;;
1593;SDS011;790;47.000;16.084;2023-09-19T11:00:57;2.40;;;2.30;;
1593;SDS011;790;47.000;16.084;2023-09-19T11:03:37;5.18;;;2.60;;
1593;SDS011;790;47.000;16.084;2023-09-19T11:06:09;2.75;;;1.70;;
1593;SDS011;790;47.000;16.084;2023-09-19T11:09:00;1.98;;;1.88;;
1593;SDS011;790;47.000;16.084;2023-09-19T11:11:45;2.10;;;2.00;;
1593;SDS011;790;47.000;16.084;2023-09-19T11:14:28;2.00;;;1.80;;
1593;SDS011;790;47.000;16.084;2023-09-19T11:23:23;3.42;;;2.00;;
1593;SDS011;790;47.000;16.084;2023-09-19T11:25:53;4.97;;;1.55;;
1593;SDS011;790;47.000;16.084;2023-09-19T11:28:30;1.73;;;1.60;;
1593;SDS011;790;47.000;16.084;2023-09-19T11:30:57;3.03;;;1.48;;
1593;SDS011;790;47.000;16.084;2023-09-19T11:33:25;1.75;;;1.58;;
1593;SDS011;790;47.000;16.084;2023-09-19T11:36:00;1.50;;;1.40;;
1593;SDS011;790;47.000;16.084;2023-09-19T11:41:40;1.65;;;1.50;;
1593;SDS011;790;47.000;16.084;2023-09-19T11:47:04;2.83;;;1.65;;
1593;SDS011;790;47.000;16.084;2023-09-19T11:49:32;1.67;;;1.58;;
1593;SDS011;790;47.000;16.084;2023-09-19T11:52:04;5.53;;;1.40;;
1593;SDS011;790;47.000;16.084;2023-09-19T11:54:33;3.70;;;1.50;;
1593;SDS011;790;47.000;16.084;2023-09-19T11:57:05;1.30;;;1.30;;
1593;SDS011;790;47.000;16.084;2023-09-19T11:59:35;1.10;;;1.10;;
1593;SDS011;790;47.000;16.084;2023-09-19T12:02:05;1.60;;;1.45;;
1593;SDS011;790;47.000;16.084;2023-09-19T12:04:34;1.52;;;1.40;;
1593;SDS011;790;47.000;16.084;2023-09-19T12:07:05;1.50;;;1.40;;
1593;SDS011;790;47.000;16.084;2023-09-19T12:09:39;1.75;;;1.65;;
1593;SDS011;790;47.000;16.084;2023-09-19T12:12:09;1.67;;;1.55;;
1593;SDS011;790;47.000;16.084;2023-09-19T12:14:40;1.30;;;1.10;;
1593;SDS011;790;47.000;16.084;2023-09-19T12:17:08;1.55;;;1.40;;
1593;SDS011;790;47.000;16.084;2023-09-19T12:19:38;1.40;;;1.30;;
1593;SDS011;790;47.000;16.084;2023-09-19T12:22:07;1.45;;;1.40;;
1593;SDS011;790;47.000;16.084;2023-09-19T12:24:34;1.80;;;1.33;;
1593;SDS011;790;47.000;16.084;2023-09-19T12:27:04;1.95;;;1.30;;
1593;SDS011;790;47.000;16.084;2023-09-19T12:29:31;2.42;;;1.33;;
1593;SDS011;790;47.000;16.084;2023-09-19T12:32:08;1.05;;;0.90;;
1593;SDS011;790;47.000;16.084;2023-09-19T12:34:35;1.23;;;1.20;;
1593;SDS011;790;47.000;16.084;2023-09-19T12:37:09;2.38;;;0.95;;
1593;SDS011;790;47.000;16.084;2023-09-19T12:39:46;4.00;;;1.20;;
1593;SDS011;790;47.000;16.084;2023-09-19T12:42:16;1.50;;;1.40;;
1593;SDS011;790;47.000;16.084;2023-09-19T12:44:45;2.13;;;1.48;;
1593;SDS011;790;47.000;16.084;2023-09-19T12:47:14;1.40;;;1.30;;
1593;SDS011;790;47.000;16.084;2023-09-19T12:52:44;2.15;;;1.35;;
1593;SDS011;790;47.000;16.084;2023-09-19T12:55:20;1.27;;;1.17;;
1593;SDS011;790;47.000;16.084;2023-09-19T12:57:55;3.03;;;1.00;;
1593;SDS011;790;47.000;16.084;2023-09-19T13:00:35;1.35;;;1.20;;
1593;SDS011;790;47.000;16.084;2023-09-19T13:03:13;1.33;;;1.20;;
1593;SDS011;790;47.000;16.084;2023-09-19T13:05:47;1.33;;;1.23;;
1593;SDS011;790;47.000;16.084;2023-09-19T13:08:20;1.23;;;1.13;;
1593;SDS011;790;47.000;16.084;2023-09-19T13:11:01;1.23;;;1.10;;
1593;SDS011;790;47.000;16.084;2023-09-19T13:13:35;1.02;;;1.00;;
1593;SDS011;790;47.000;16.084;2023-09-19T13:16:03;1.30;;;1.20;;
1593;SDS011;790;47.000;16.084;2023-09-19T13:18:41;1.38;;;1.25;;
1593;SDS011;790;47.000;16.084;2023-09-19T13:21:12;2.72;;;1.15;;
1593;SDS011;790;47.000;16.084;2023-09-19T13:23:51;1.40;;;0.95;;
1593;SDS011;790;47.000;16.084;2023-09-19T13:26:19;1.30;;;1.30;;
1593;SDS011;790;47.000;16.084;2023-09-19T13:28:48;1.52;;;1.20;;
1593;SDS011;790;47.000;16.084;2023-09-19T13:31:15;1.42;;;1.30;;
1593;SDS011;790;47.000;16.084;2023-09-19T13:33:43;1.35;;;1.00;;
1593;SDS011;790;47.000;16.084;2023-09-19T13:36:11;1.10;;;1.10;;
1593;SDS011;790;47.000;16.084;2023-09-19T13:38:39;1.55;;;1.10;;
1593;SDS011;790;47.000;16.084;2023-09-19T13:41:09;1.42;;;1.33;;
1593;SDS011;790;47.000;16.084;2023-09-19T13:43:36;1.90;;;1.17;;
1593;SDS011;790;47.000;16.084;2023-09-19T13:46:04;5.18;;;1.45;;
1593;SDS011;790;47.000;16.084;2023-09-19T13:48:32;2.05;;;1.23;;
1593;SDS011;790;47.000;16.084;2023-09-19T13:51:01;1.92;;;1.10;;
1593;SDS011;790;47.000;16.084;2023-09-19T13:53:29;1.00;;;1.00;;
1593;SDS011;790;47.000;16.084;2023-09-19T13:55:56;1.30;;;1.10;;
1593;SDS011;790;47.000;16.084;2023-09-19T13:58:24;2.25;;;1.20;;
1593;SDS011;790;47.000;16.084;2023-09-19T14:00:52;1.30;;;1.20;;
1593;SDS011;790;47.000;16.084;2023-09-19T14:03:21;1.30;;;1.30;;
1593;SDS011;790;47.000;16.084;2023-09-19T14:05:49;1.10;;;1.10;;
1593;SDS011;790;47.000;16.084;2023-09-19T14:08:17;1.42;;;1.10;;
1593;SDS011;790;47.000;16.084;2023-09-19T14:10:44;0.90;;;0.90;;
1593;SDS011;790;47.000;16.084;2023-09-19T14:13:11;2.45;;;1.10;;
1593;SDS011;790;47.000;16.084;2023-09-19T14:15:41;1.30;;;1.20;;
1593;SDS011;790;47.000;16.084;2023-09-19T14:18:08;1.95;;;1.20;;
1593;SDS011;790;47.000;16.084;2023-09-19T14:20:37;1.30;;;1.13;;
1593;SDS011;790;47.000;16.084;2023-09-19T14:23:05;1.33;;;1.20;;
1593;SDS011;790;47.000;16.084;2023-09-19T14:25:33;1.45;;;1.15;;
1593;SDS011;790;47.000;16.084;2023-09-19T14:28:01;1.40;;;1.23;;
1593;SDS011;790;47.000;16.084;2023-09-19T14:30:28;1.20;;;1.20;;
1593;SDS011;790;47.000;16.084;2023-09-19T14:32:57;1.95;;;1.20;;
1593;SDS011;790;47.000;16.084;2023-09-19T14:35:24;1.05;;;1.05;;
1593;SDS011;790;47.000;16.084;2023-09-19T14:37:52;1.25;;;1.15;;
1593;SDS011;790;47.000;16.084;2023-09-19T14:40:20;1.30;;;1.30;;
1593;SDS011;790;47.000;16.084;2023-09-19T14:42:47;1.10;;;1.10;;
1593;SDS011;790;47.000;16.084;2023-09-19T14:45:15;2.53;;;1.33;;
1593;SDS011;790;47.000;16.084;2023-09-19T14:47:43;1.40;;;1.30;;
1593;SDS011;790;47.000;16.084;2023-09-19T14:50:13;1.83;;;1.30;;
1593;SDS011;790;47.000;16.084;2023-09-19T14:52:40;1.60;;;1.35;;
1593;SDS011;790;47.000;16.084;2023-09-19T14:55:08;1.50;;;1.40;;
1593;SDS011;790;47.000;16.084;2023-09-19T14:57:39;2.03;;;1.25;;
1593;SDS011;790;47.000;16.084;2023-09-19T15:00:10;1.42;;;1.20;;
1593;SDS011;790;47.000;16.084;2023-09-19T15:02:38;1.10;;;1.10;;
1593;SDS011;790;47.000;16.084;2023-09-19T15:05:06;1.70;;;1.25;;
1593;SDS011;790;47.000;16.084;2023-09-19T15:07:35;1.70;;;1.60;;
1593;SDS011;790;47.000;16.084;2023-09-19T15:10:03;1.10;;;1.10;;
1593;SDS011;790;47.000;16.084;2023-09-19T15:12:32;1.23;;;1.13;;
1593;SDS011;790;47.000;16.084;2023-09-19T15:15:01;3.45;;;1.60;;
1593;SDS011;790;47.000;16.084;2023-09-19T15:17:28;1.70;;;1.38;;
1593;SDS011;790;47.000;16.084;2023-09-19T15:19:55;0.95;;;0.90;;
1593;SDS011;790;47.000;16.084;2023-09-19T15:22:22;1.38;;;1.27;;
1593;SDS011;790;47.000;16.084;2023-09-19T15:24:51;2.33;;;1.30;;
1593;SDS011;790;47.000;16.084;2023-09-19T15:27:18;2.30;;;1.45;;
1593;SDS011;790;47.000;16.084;2023-09-19T15:29:45;3.13;;;1.63;;
1593;SDS011;790;47.000;16.084;2023-09-19T15:32:12;1.98;;;1.63;;
1593;SDS011;790;47.000;16.084;2023-09-19T15:34:39;3.85;;;1.50;;
1593;SDS011;790;47.000;16.084;2023-09-19T15:37:06;1.88;;;1.38;;
1593;SDS011;790;47.000;16.084;2023-09-19T15:39:34;1.50;;;1.40;;
1593;SDS011;790;47.000;16.084;2023-09-19T15:42:03;2.35;;;1.33;;
1593;SDS011;790;47.000;16.084;2023-09-19T15:44:31;1.58;;;1.40;;